createdAt,value
2018-11-22T00:00:56.073Z,4.73
2018-11-22T00:03:27.343Z,4.40
2018-11-22T00:05:58.581Z,4.80
2018-11-22T00:08:30.853Z,4.87
2018-11-22T00:11:02.082Z,4.63
2018-11-22T00:13:33.363Z,6.20
2018-11-22T00:16:05.095Z,4.97
2018-11-22T00:18:36.414Z,4.80
2018-11-22T00:21:07.801Z,5.90
2018-11-22T00:23:39.141Z,5.57
2018-11-22T00:26:10.382Z,5.17
2018-11-22T00:28:41.583Z,4.97
2018-11-22T00:31:12.854Z,5.23
2018-11-22T00:33:44.113Z,4.33
2018-11-22T00:36:15.362Z,5.33
2018-11-22T00:38:46.785Z,4.53
2018-11-22T00:41:18.556Z,4.87
2018-11-22T00:43:49.845Z,5.47
2018-11-22T00:46:21.047Z,6.07
2018-11-22T00:48:52.250Z,4.67
2018-11-22T00:51:23.557Z,5.63
2018-11-22T00:53:54.896Z,5.47
2018-11-22T00:56:26.249Z,4.53
2018-11-22T00:58:57.477Z,5.07
2018-11-22T01:01:28.701Z,4.67
2018-11-22T01:03:59.967Z,4.30
2018-11-22T01:06:31.171Z,5.60
2018-11-22T01:09:02.477Z,4.80
2018-11-22T01:11:33.732Z,5.40
2018-11-22T01:14:05.140Z,5.37
2018-11-22T01:16:36.301Z,6.33
2018-11-22T01:19:07.988Z,5.60
2018-11-22T01:21:39.245Z,7.07
2018-11-22T01:24:10.647Z,7.07
2018-11-22T01:26:41.887Z,6.67
2018-11-22T01:29:13.164Z,6.60
2018-11-22T01:31:44.298Z,6.73
2018-11-22T01:34:15.495Z,6.83
2018-11-22T01:36:46.652Z,6.70
2018-11-22T01:39:17.936Z,7.07
2018-11-22T01:41:49.214Z,6.43
2018-11-22T01:44:20.506Z,7.53
2018-11-22T01:46:51.870Z,7.07
2018-11-22T01:49:23.237Z,7.90
2018-11-22T01:51:54.674Z,8.70
2018-11-22T01:54:25.998Z,8.80
2018-11-22T01:56:57.424Z,7.87
2018-11-22T01:59:28.740Z,9.20
2018-11-22T02:02:00.058Z,9.43
2018-11-22T02:04:31.306Z,10.33
2018-11-22T02:07:02.466Z,10.17
2018-11-22T02:09:33.759Z,11.13
2018-11-22T02:12:05.047Z,10.53
2018-11-22T02:14:36.356Z,11.47
2018-11-22T02:17:07.748Z,12.30
2018-11-22T02:19:38.923Z,11.87
2018-11-22T02:22:10.276Z,13.53
2018-11-22T02:24:41.591Z,13.77
2018-11-22T02:27:12.957Z,13.00
2018-11-22T02:29:44.264Z,12.80
2018-11-22T02:32:15.523Z,16.67
2018-11-22T02:34:46.770Z,14.57
2018-11-22T02:37:18.065Z,15.13
2018-11-22T02:39:49.388Z,14.57
2018-11-22T02:42:20.644Z,15.23
2018-11-22T02:44:51.980Z,14.60
2018-11-22T02:47:23.335Z,15.73
2018-11-22T02:49:54.557Z,16.47
2018-11-22T02:52:25.750Z,16.63
2018-11-22T02:54:57.161Z,18.93
2018-11-22T02:57:28.454Z,18.90
2018-11-22T02:59:59.841Z,20.97
2018-11-22T03:02:31.103Z,17.57
2018-11-22T03:05:02.516Z,20.90
2018-11-22T03:07:33.775Z,18.87
2018-11-22T03:10:05.004Z,18.77
2018-11-22T03:12:36.231Z,16.73
2018-11-22T03:15:08.519Z,17.67
2018-11-22T03:17:39.808Z,17.20
2018-11-22T03:20:13.057Z,22.10
2018-11-22T03:22:44.967Z,20.33
2018-11-22T03:25:19.947Z,18.30
2018-11-22T03:27:52.028Z,17.13
2018-11-22T03:30:24.453Z,16.67
2018-11-22T03:32:55.859Z,17.03
2018-11-22T03:35:28.188Z,16.17
2018-11-22T03:37:59.476Z,18.60
2018-11-22T03:40:30.806Z,17.23
2018-11-22T03:43:01.976Z,16.93
2018-11-22T03:48:21.495Z,18.73
2018-11-22T03:50:52.817Z,19.17
2018-11-22T03:53:24.183Z,18.37
2018-11-22T03:55:55.555Z,18.80
2018-11-22T03:58:26.863Z,18.67
2018-11-22T04:00:58.158Z,19.10
2018-11-22T04:03:29.425Z,17.53
2018-11-22T04:06:00.669Z,19.90
2018-11-22T04:08:32.004Z,19.03
2018-11-22T04:11:03.300Z,19.57
2018-11-22T04:13:34.545Z,18.23
2018-11-22T04:16:05.955Z,17.93
2018-11-22T04:18:37.281Z,19.50
2018-11-22T04:21:08.484Z,18.63
2018-11-22T04:23:39.742Z,18.47
2018-11-22T04:26:11.080Z,21.17
2018-11-22T04:28:42.324Z,19.77
2018-11-22T04:31:13.617Z,20.40
2018-11-22T04:33:44.944Z,18.40
2018-11-22T04:36:16.100Z,17.97
2018-11-22T04:38:47.471Z,18.43
2018-11-22T04:41:18.715Z,18.23
2018-11-22T04:43:49.953Z,19.30
2018-11-22T04:46:39.771Z,15.53
2018-11-22T04:49:11.097Z,17.37
2018-11-22T04:51:42.439Z,14.30
2018-11-22T04:54:14.011Z,15.33
2018-11-22T04:56:45.250Z,15.27
2018-11-22T04:59:16.622Z,15.47
2018-11-22T05:01:47.810Z,16.00
2018-11-22T05:04:19.077Z,15.53
2018-11-22T05:06:50.339Z,17.30
2018-11-22T05:09:21.716Z,20.43
2018-11-22T05:11:52.927Z,19.73
2018-11-22T05:14:24.263Z,20.77
2018-11-22T05:16:55.615Z,19.43
2018-11-22T05:19:26.965Z,17.40
2018-11-22T05:21:58.352Z,17.60
2018-11-22T05:24:29.740Z,18.03
2018-11-22T05:27:00.988Z,17.63
2018-11-22T05:29:32.267Z,18.43
2018-11-22T05:32:03.502Z,17.60
2018-11-22T05:34:34.819Z,17.37
2018-11-22T05:37:06.161Z,17.67
2018-11-22T05:39:37.544Z,17.67
2018-11-22T05:42:08.793Z,17.23
2018-11-22T05:44:40.104Z,16.63
2018-11-22T05:47:11.338Z,15.17
2018-11-22T05:49:42.756Z,16.87
2018-11-22T05:52:14.169Z,15.97
2018-11-22T05:54:45.456Z,15.80
2018-11-22T05:57:16.787Z,16.93
2018-11-22T05:59:48.005Z,17.03
2018-11-22T06:02:19.282Z,17.30
2018-11-22T06:04:50.705Z,18.40
2018-11-22T06:07:22.141Z,21.00
2018-11-22T06:09:53.289Z,19.77
2018-11-22T06:12:24.687Z,19.83
2018-11-22T06:14:55.909Z,23.13
2018-11-22T06:17:27.335Z,23.67
2018-11-22T06:19:58.546Z,23.67
2018-11-22T06:22:30.231Z,24.90
2018-11-22T06:25:03.769Z,25.83
2018-11-22T06:27:32.903Z,29.60
2018-11-22T06:30:04.215Z,38.73
2018-11-22T06:32:35.519Z,31.90
2018-11-22T06:35:06.934Z,31.23
2018-11-22T06:37:38.291Z,49.17
2018-11-22T06:40:11.505Z,37.20
2018-11-22T06:42:43.395Z,39.57
2018-11-22T06:45:17.154Z,44.50
2018-11-22T06:47:48.515Z,40.93
2018-11-22T06:50:20.845Z,38.73
2018-11-22T06:52:52.163Z,38.77
2018-11-22T06:55:57.571Z,42.13
2018-11-22T06:58:41.462Z,39.43
2018-11-22T07:01:12.698Z,39.07
2018-11-22T07:03:43.870Z,48.70
2018-11-22T07:06:15.128Z,42.67
2018-11-22T07:08:46.242Z,39.77
2018-11-22T07:11:17.686Z,42.73
2018-11-22T07:13:48.961Z,46.87
2018-11-22T07:16:20.243Z,42.57
2018-11-22T07:18:51.476Z,45.17
2018-11-22T07:21:22.747Z,51.00
2018-11-22T07:23:54.078Z,46.37
2018-11-22T07:26:25.338Z,34.97
2018-11-22T07:28:56.639Z,53.10
2018-11-22T07:31:28.053Z,58.77
2018-11-22T07:33:59.466Z,44.03
2018-11-22T07:36:30.756Z,47.07
2018-11-22T07:39:02.468Z,38.50
2018-11-22T07:41:33.797Z,42.63
2018-11-22T07:44:05.038Z,49.93
2018-11-22T07:46:36.297Z,59.93
2018-11-22T07:49:07.823Z,52.63
2018-11-22T07:51:39.116Z,46.03
2018-11-22T07:54:10.312Z,56.53
2018-11-22T07:56:41.625Z,42.33
2018-11-22T07:59:13.372Z,73.93
2018-11-22T08:01:44.763Z,48.50
2018-11-22T08:04:15.994Z,59.17
2018-11-22T08:06:47.228Z,55.33
2018-11-22T08:09:18.464Z,58.17
2018-11-22T08:11:49.757Z,67.47
2018-11-22T08:14:21.012Z,70.03
2018-11-22T08:16:52.345Z,60.23
2018-11-22T08:19:23.639Z,39.17
2018-11-22T08:21:55.046Z,61.77
2018-11-22T08:24:26.402Z,80.00
2018-11-22T08:26:57.756Z,52.13
2018-11-22T08:29:29.173Z,74.87
2018-11-22T08:32:00.453Z,51.67
2018-11-22T08:34:31.737Z,53.77
2018-11-22T08:37:02.997Z,51.97
2018-11-22T08:39:34.229Z,51.33
2018-11-22T08:42:05.544Z,35.87
2018-11-22T08:44:36.778Z,52.30
2018-11-22T08:47:12.070Z,59.60
2018-11-22T08:49:39.390Z,69.73
2018-11-22T08:52:10.635Z,57.90
2018-11-22T08:54:41.893Z,52.03
2018-11-22T08:57:13.354Z,47.77
2018-11-22T08:59:44.744Z,67.37
2018-11-22T09:02:16.091Z,46.23
2018-11-22T09:04:47.335Z,51.93
2018-11-22T09:07:18.709Z,57.00
2018-11-22T09:09:49.926Z,51.37
2018-11-22T09:12:21.294Z,55.80
2018-11-22T09:14:52.621Z,53.00
2018-11-22T09:17:23.869Z,56.73
2018-11-22T09:19:55.132Z,45.63
2018-11-22T09:22:26.451Z,67.77
2018-11-22T09:24:57.780Z,43.17
2018-11-22T09:27:29.122Z,72.80
2018-11-22T09:30:00.420Z,67.67
2018-11-22T09:32:31.701Z,69.83
2018-11-22T09:35:03.041Z,66.63
2018-11-22T09:37:34.536Z,67.10
2018-11-22T09:40:07.001Z,60.90
2018-11-22T09:42:38.362Z,71.77
2018-11-22T09:45:13.450Z,61.83
2018-11-22T09:47:44.897Z,58.87
2018-11-22T09:50:17.211Z,62.50
2018-11-22T09:52:49.267Z,47.03
2018-11-22T09:55:20.795Z,59.50
2018-11-22T09:57:52.079Z,59.87
2018-11-22T10:00:24.255Z,93.60
2018-11-22T10:02:55.722Z,62.53
2018-11-22T10:05:28.502Z,47.80
2018-11-22T10:07:59.672Z,78.27
2018-11-22T10:10:32.783Z,74.67
2018-11-22T10:13:04.113Z,56.17
2018-11-22T10:15:36.388Z,84.57
2018-11-22T10:18:07.817Z,58.00
2018-11-22T10:20:39.079Z,47.70
2018-11-22T10:23:10.385Z,70.50
2018-11-22T10:25:41.663Z,50.60
2018-11-22T10:28:13.071Z,88.97
2018-11-22T10:30:44.345Z,69.20
2018-11-22T10:33:15.682Z,47.67
2018-11-22T10:35:46.987Z,57.23
2018-11-22T10:38:18.354Z,75.70
2018-11-22T10:40:49.559Z,48.97
2018-11-22T10:43:20.914Z,59.37
2018-11-22T10:45:52.270Z,77.50
2018-11-22T10:48:23.561Z,65.43
2018-11-22T10:50:54.787Z,60.87
2018-11-22T10:53:26.076Z,89.80
2018-11-22T10:55:57.296Z,41.47
2018-11-22T10:58:28.577Z,38.83
2018-11-22T11:01:18.347Z,37.40
2018-11-22T11:04:08.108Z,38.40
2018-11-22T11:06:57.940Z,43.27
2018-11-22T11:09:29.302Z,34.07
2018-11-22T11:12:00.692Z,41.97
2018-11-22T11:14:31.921Z,47.33
2018-11-22T11:17:03.283Z,35.47
2018-11-22T11:19:34.641Z,33.80
2018-11-22T11:22:06.343Z,34.83
2018-11-22T11:24:38.433Z,42.17
2018-11-22T11:27:09.224Z,39.37
2018-11-22T11:29:40.618Z,32.60
2018-11-22T11:32:11.822Z,29.83
2018-11-22T11:34:43.154Z,31.80
2018-11-22T11:37:14.420Z,31.73
2018-11-22T11:39:45.820Z,30.63
2018-11-22T11:42:17.182Z,29.63
2018-11-22T11:44:48.399Z,31.07
2018-11-22T11:47:19.944Z,29.40
2018-11-22T11:49:51.228Z,29.73
2018-11-22T11:52:22.782Z,29.13
2018-11-22T11:54:54.092Z,30.23
2018-11-22T11:57:25.378Z,30.97
2018-11-22T11:59:56.687Z,29.97
2018-11-22T12:02:27.893Z,29.77
2018-11-22T12:04:59.208Z,30.37
2018-11-22T12:07:30.474Z,30.40
2018-11-22T12:10:01.768Z,30.47
2018-11-22T12:12:33.118Z,30.30
2018-11-22T12:15:04.510Z,29.50
2018-11-22T12:17:35.920Z,32.03
2018-11-22T12:20:08.002Z,31.13
2018-11-22T12:22:40.075Z,29.00
2018-11-22T12:25:13.706Z,29.90
2018-11-22T12:27:46.001Z,28.93
2018-11-22T12:30:36.647Z,29.97
2018-11-22T12:33:09.150Z,28.73
2018-11-22T12:35:58.822Z,26.70
2018-11-22T12:38:48.563Z,29.80
2018-11-22T12:41:20.030Z,28.43
2018-11-22T12:43:51.401Z,41.53
2018-11-22T12:46:22.667Z,30.97
2018-11-22T12:48:53.924Z,34.07
2018-11-22T12:51:25.233Z,30.20
2018-11-22T12:53:56.472Z,28.90
2018-11-22T12:56:27.764Z,32.17
2018-11-22T12:58:58.943Z,29.93
2018-11-22T13:01:30.402Z,30.37
2018-11-22T13:04:01.665Z,37.47
2018-11-22T13:06:33.014Z,31.53
2018-11-22T13:09:04.525Z,29.37
2018-11-22T13:11:35.857Z,28.47
2018-11-22T13:14:07.225Z,28.37
2018-11-22T13:16:38.536Z,26.73
2018-11-22T13:19:09.653Z,28.60
2018-11-22T13:21:40.996Z,31.43
2018-11-22T13:24:12.245Z,30.40
2018-11-22T13:26:43.579Z,33.50
2018-11-22T13:29:14.778Z,33.20
2018-11-22T13:31:46.049Z,30.87
2018-11-22T13:34:17.382Z,34.03
2018-11-22T13:36:48.660Z,28.40
2018-11-22T13:39:19.860Z,34.10
2018-11-22T13:41:51.209Z,29.53
2018-11-22T13:44:22.821Z,33.23
2018-11-22T13:46:54.168Z,34.67
2018-11-22T13:49:25.481Z,33.63
2018-11-22T13:51:56.781Z,31.03
2018-11-22T13:54:28.090Z,32.13
2018-11-22T13:56:59.280Z,27.87
2018-11-22T13:59:30.678Z,27.73
2018-11-22T14:02:01.888Z,28.57
2018-11-22T14:04:33.721Z,27.03
2018-11-22T14:07:04.432Z,29.03
2018-11-22T14:09:35.796Z,28.33
2018-11-22T14:14:47.044Z,27.67
2018-11-22T14:17:18.425Z,26.83
2018-11-22T14:19:49.770Z,27.67
2018-11-22T14:22:21.103Z,26.93
2018-11-22T14:24:52.426Z,27.87
2018-11-22T14:27:23.975Z,29.40
2018-11-22T14:29:55.378Z,28.70
2018-11-22T14:32:26.679Z,28.23
2018-11-22T14:35:00.609Z,27.50
2018-11-22T14:37:29.709Z,27.53
2018-11-22T14:40:00.899Z,28.87
2018-11-22T14:42:32.239Z,28.53
2018-11-22T14:45:03.508Z,28.23
2018-11-22T14:47:34.799Z,27.50
2018-11-22T14:50:09.915Z,29.43
2018-11-22T14:52:41.626Z,31.87
2018-11-22T14:55:13.182Z,32.87
2018-11-22T14:57:44.521Z,31.30
2018-11-22T15:00:34.705Z,31.17
2018-11-22T15:03:06.077Z,31.57
2018-11-22T15:05:37.380Z,30.47
2018-11-22T15:08:08.912Z,28.80
2018-11-22T15:10:40.210Z,42.60
2018-11-22T15:13:11.602Z,50.43
2018-11-22T15:15:42.948Z,53.37
2018-11-22T15:18:14.150Z,40.20
2018-11-22T15:20:45.523Z,34.93
2018-11-22T15:23:23.834Z,35.57
2018-11-22T15:25:52.871Z,31.53
2018-11-22T15:28:24.240Z,29.90
2018-11-22T15:30:55.416Z,31.30
2018-11-22T15:33:26.959Z,27.43
2018-11-22T15:36:01.116Z,25.57
2018-11-22T15:38:32.408Z,26.03
2018-11-22T15:41:03.705Z,25.97
2018-11-22T15:43:35.043Z,27.90
2018-11-22T15:46:06.479Z,24.90
2018-11-22T15:48:37.756Z,25.90
2018-11-22T15:51:09.088Z,23.93
2018-11-22T15:53:40.284Z,26.10
2018-11-22T15:56:11.650Z,26.43
2018-11-22T15:58:42.886Z,23.63
2018-11-22T16:01:14.176Z,20.97
2018-11-22T16:03:45.536Z,21.20
2018-11-22T16:06:16.873Z,21.00
2018-11-22T16:08:48.100Z,20.97
2018-11-22T16:11:19.428Z,20.63
2018-11-22T16:13:50.657Z,20.03
2018-11-22T16:16:21.974Z,20.33
2018-11-22T16:18:53.152Z,19.07
2018-11-22T16:21:24.491Z,19.50
2018-11-22T16:23:55.707Z,18.47
2018-11-22T16:26:27.012Z,17.70
2018-11-22T16:28:58.262Z,18.10
2018-11-22T16:31:29.677Z,18.97
2018-11-22T16:34:00.919Z,18.13
2018-11-22T16:36:32.247Z,18.03
2018-11-22T16:39:03.585Z,17.17
2018-11-22T16:41:34.874Z,16.73
2018-11-22T16:44:06.477Z,17.20
2018-11-22T16:46:37.865Z,17.50
2018-11-22T16:49:09.145Z,16.77
2018-11-22T16:51:40.447Z,17.97
2018-11-22T16:54:11.791Z,16.90
2018-11-22T16:56:43.062Z,16.70
2018-11-22T16:59:14.527Z,18.10
2018-11-22T17:01:45.777Z,16.77
2018-11-22T17:04:17.125Z,16.93
2018-11-22T17:06:48.359Z,17.97
2018-11-22T17:09:19.722Z,15.87
2018-11-22T17:11:51.096Z,16.00
2018-11-22T17:14:22.356Z,16.87
2018-11-22T17:16:53.734Z,16.23
2018-11-22T17:19:25.173Z,17.40
2018-11-22T17:21:56.581Z,17.93
2018-11-22T17:24:47.018Z,17.49
2018-11-22T17:27:18.350Z,19.03
2018-11-22T17:29:49.598Z,18.97
2018-11-22T17:32:21.033Z,20.80
2018-11-22T17:34:52.341Z,20.20
2018-11-22T17:37:23.709Z,21.23
2018-11-22T17:39:55.139Z,21.67
2018-11-22T17:42:26.538Z,20.67
2018-11-22T17:44:57.921Z,21.47
2018-11-22T17:47:29.677Z,22.37
2018-11-22T17:50:00.959Z,21.37
2018-11-22T17:52:32.276Z,22.70
2018-11-22T17:55:03.537Z,21.00
2018-11-22T17:57:34.947Z,21.60
2018-11-22T18:00:07.483Z,21.80
2018-11-22T18:02:38.912Z,20.47
2018-11-22T18:05:11.315Z,21.50
2018-11-22T18:07:45.617Z,21.33
2018-11-22T18:10:35.600Z,20.97
2018-11-22T18:13:07.065Z,21.60
2018-11-22T18:15:56.890Z,20.87
2018-11-22T18:18:28.877Z,20.20
2018-11-22T18:21:00.227Z,22.07
2018-11-22T18:23:31.634Z,21.57
2018-11-22T18:26:02.973Z,21.20
2018-11-22T18:28:34.327Z,20.93
2018-11-22T18:31:05.711Z,21.17
2018-11-22T18:33:55.622Z,20.77
2018-11-22T18:36:27.332Z,20.37
2018-11-22T18:39:18.169Z,20.60
2018-11-22T18:41:49.439Z,19.53
2018-11-22T18:44:20.779Z,19.73
2018-11-22T18:46:52.002Z,21.23
2018-11-22T18:49:23.359Z,22.00
2018-11-22T18:51:54.542Z,19.33
2018-11-22T18:54:25.874Z,20.40
2018-11-22T18:56:57.074Z,19.80
2018-11-22T19:02:53.184Z,20.33
2018-11-22T19:05:24.437Z,21.53
2018-11-22T19:07:56.770Z,19.77
2018-11-22T19:10:32.537Z,19.93
2018-11-22T19:13:05.155Z,20.73
2018-11-22T19:15:37.976Z,20.80
2018-11-22T19:18:09.926Z,19.47
2018-11-22T19:20:42.531Z,18.33
2018-11-22T19:23:14.294Z,20.57
2018-11-22T19:25:45.617Z,22.23
2018-11-22T19:28:16.959Z,19.63
2018-11-22T19:30:48.939Z,19.63
2018-11-22T19:33:20.993Z,19.10
2018-11-22T19:35:53.820Z,20.57
2018-11-22T19:38:25.094Z,19.63
2018-11-22T19:40:56.905Z,19.70
2018-11-22T19:43:28.208Z,19.87
2018-11-22T19:45:59.510Z,19.70
2018-11-22T19:48:30.784Z,18.77
2018-11-22T19:51:05.783Z,18.63
2018-11-22T19:53:33.297Z,19.13
2018-11-22T19:56:04.641Z,17.50
2018-11-22T19:58:36.129Z,19.10
2018-11-22T20:01:07.756Z,18.60
2018-11-22T20:03:38.669Z,18.17
2018-11-22T20:06:10.035Z,18.63
2018-11-22T20:08:41.383Z,19.37
2018-11-22T20:11:12.713Z,18.53
2018-11-22T20:13:44.089Z,18.37
2018-11-22T20:16:15.322Z,18.43
2018-11-22T20:18:46.639Z,18.40
2018-11-22T20:21:17.961Z,19.73
2018-11-22T20:23:49.205Z,20.60
2018-11-22T20:26:20.552Z,18.97
2018-11-22T20:28:51.956Z,19.33
2018-11-22T20:31:23.361Z,21.20
2018-11-22T20:33:56.754Z,19.60
2018-11-22T20:36:28.102Z,19.53
2018-11-22T20:38:59.457Z,20.73
2018-11-22T20:41:30.751Z,22.03
2018-11-22T20:44:02.027Z,21.70
2018-11-22T20:46:33.283Z,23.60
2018-11-22T20:49:04.679Z,23.03
2018-11-22T20:51:36.256Z,21.90
2018-11-22T20:54:07.614Z,22.83
2018-11-22T20:56:38.835Z,23.97
2018-11-22T20:59:10.199Z,22.97
2018-11-22T21:01:41.389Z,22.43
2018-11-22T21:04:12.732Z,22.60
2018-11-22T21:06:43.992Z,24.37
2018-11-22T21:09:15.281Z,22.77
2018-11-22T21:11:46.464Z,23.53
2018-11-22T21:14:17.829Z,23.30
2018-11-22T21:16:49.092Z,23.67
2018-11-22T21:19:20.459Z,23.27
2018-11-22T21:21:51.676Z,26.63
2018-11-22T21:24:22.998Z,25.70
2018-11-22T21:26:54.438Z,24.40
2018-11-22T21:29:26.201Z,27.30
2018-11-22T21:31:57.482Z,26.30
2018-11-22T21:34:28.786Z,27.93
2018-11-22T21:36:59.957Z,27.87
2018-11-22T21:39:31.198Z,27.23
2018-11-22T21:42:02.462Z,28.47
2018-11-22T21:44:33.738Z,26.40
2018-11-22T21:47:05.043Z,27.03
2018-11-22T21:49:36.387Z,27.27
2018-11-22T21:52:07.797Z,26.80
2018-11-22T21:54:39.073Z,26.33
2018-11-22T21:57:10.327Z,26.93
2018-11-22T21:59:41.615Z,27.23
2018-11-22T22:02:12.941Z,25.93
2018-11-22T22:04:44.169Z,26.00
2018-11-22T22:07:15.519Z,24.20
2018-11-22T22:09:46.729Z,26.37
2018-11-22T22:12:18.005Z,23.77
2018-11-22T22:14:49.278Z,25.10
2018-11-22T22:17:20.608Z,23.80
2018-11-22T22:19:51.857Z,25.20
2018-11-22T22:22:23.313Z,24.70
2018-11-22T22:24:54.566Z,24.93
2018-11-22T22:27:25.815Z,24.87
2018-11-22T22:29:57.082Z,24.30
2018-11-22T22:32:28.326Z,25.33
2018-11-22T22:34:59.517Z,24.53
2018-11-22T22:37:30.789Z,24.80
2018-11-22T22:40:03.795Z,24.70
2018-11-22T22:42:33.346Z,22.87
2018-11-22T22:45:04.569Z,25.83
2018-11-22T22:47:36.027Z,24.50
2018-11-22T22:50:08.659Z,26.63
2018-11-22T22:52:39.927Z,25.50
2018-11-22T22:55:11.802Z,24.70
2018-11-22T22:57:43.431Z,27.23
2018-11-22T23:00:37.248Z,25.13
2018-11-22T23:03:09.006Z,26.20
2018-11-22T23:05:40.294Z,25.80
2018-11-22T23:08:11.576Z,25.13
2018-11-22T23:10:42.890Z,25.57
2018-11-22T23:13:14.113Z,25.30
2018-11-22T23:15:45.393Z,25.27
2018-11-22T23:18:16.648Z,24.47
2018-11-22T23:20:47.818Z,24.40
2018-11-22T23:23:19.001Z,24.57
2018-11-22T23:25:50.352Z,26.07
2018-11-22T23:28:21.616Z,25.23
2018-11-22T23:31:40.965Z,26.20
2018-11-22T23:34:14.104Z,24.87
2018-11-22T23:36:46.898Z,25.23
2018-11-22T23:39:19.944Z,26.90
2018-11-22T23:41:54.008Z,24.90
2018-11-22T23:44:25.259Z,27.10
2018-11-22T23:46:58.380Z,26.40
2018-11-22T23:49:30.439Z,26.63
2018-11-22T23:52:03.181Z,26.13
2018-11-22T23:54:34.553Z,27.53
2018-11-22T23:59:39.691Z,29.00
